sensor_id;sensor_type;location;lat;lon;timestamp;P1;durP1;ratioP1;P2;durP2;ratioP2
20000;SDS011;10161;41.188;-8.642;2023-02-28T00:00:17;25.03;;;18.57;;
20000;SDS011;10161;41.188;-8.642;2023-02-28T00:02:45;22.50;;;16.30;;
20000;SDS011;10161;41.188;-8.642;2023-02-28T00:05:15;26.20;;;19.03;;
20000;SDS011;10161;41.188;-8.642;2023-02-28T00:07:43;29.10;;;19.17;;
20000;SDS011;10161;41.188;-8.642;2023-02-28T00:10:11;25.27;;;18.13;;
20000;SDS011;10161;41.188;-8.642;2023-02-28T00:12:39;22.90;;;17.23;;
20000;SDS011;10161;41.188;-8.642;2023-02-28T00:15:07;24.77;;;18.80;;
20000;SDS011;10161;41.188;-8.642;2023-02-28T00:17:36;26.57;;;19.10;;
20000;SDS011;10161;41.188;-8.642;2023-02-28T00:20:04;22.63;;;17.53;;
20000;SDS011;10161;41.188;-8.642;2023-02-28T00:22:35;21.50;;;16.17;;
20000;SDS011;10161;41.188;-8.642;2023-02-28T00:25:02;20.47;;;17.60;;
20000;SDS011;10161;41.188;-8.642;2023-02-28T00:27:32;17.97;;;15.13;;
20000;SDS011;10161;41.188;-8.642;2023-02-28T00:29:59;18.10;;;14.70;;
20000;SDS011;10161;41.188;-8.642;2023-02-28T00:32:26;16.67;;;13.13;;
20000;SDS011;10161;41.188;-8.642;2023-02-28T00:34:54;22.07;;;16.10;;
20000;SDS011;10161;41.188;-8.642;2023-02-28T00:37:21;20.53;;;14.67;;
20000;SDS011;10161;41.188;-8.642;2023-02-28T00:39:49;18.80;;;14.40;;
20000;SDS011;10161;41.188;-8.642;2023-02-28T00:42:17;21.30;;;15.90;;
20000;SDS011;10161;41.188;-8.642;2023-02-28T00:44:44;18.83;;;16.00;;
20000;SDS011;10161;41.188;-8.642;2023-02-28T00:47:11;21.83;;;16.80;;
20000;SDS011;10161;41.188;-8.642;2023-02-28T00:49:39;19.00;;;16.17;;
20000;SDS011;10161;41.188;-8.642;2023-02-28T00:52:06;20.87;;;16.30;;
20000;SDS011;10161;41.188;-8.642;2023-02-28T00:54:33;17.80;;;13.77;;
20000;SDS011;10161;41.188;-8.642;2023-02-28T00:57:02;19.40;;;14.63;;
20000;SDS011;10161;41.188;-8.642;2023-02-28T00:59:30;19.47;;;14.97;;
20000;SDS011;10161;41.188;-8.642;2023-02-28T01:01:57;17.53;;;14.10;;
20000;SDS011;10161;41.188;-8.642;2023-02-28T01:04:25;15.00;;;12.67;;
20000;SDS011;10161;41.188;-8.642;2023-02-28T01:06:52;18.80;;;12.97;;
20000;SDS011;10161;41.188;-8.642;2023-02-28T01:09:20;13.87;;;12.47;;
20000;SDS011;10161;41.188;-8.642;2023-02-28T01:11:48;16.40;;;12.37;;
20000;SDS011;10161;41.188;-8.642;2023-02-28T01:14:17;15.77;;;11.50;;
20000;SDS011;10161;41.188;-8.642;2023-02-28T01:16:44;18.37;;;11.13;;
20000;SDS011;10161;41.188;-8.642;2023-02-28T01:19:11;12.60;;;11.30;;
20000;SDS011;10161;41.188;-8.642;2023-02-28T01:21:40;12.77;;;10.80;;
20000;SDS011;10161;41.188;-8.642;2023-02-28T01:24:08;12.00;;;10.03;;
20000;SDS011;10161;41.188;-8.642;2023-02-28T01:26:35;14.70;;;10.30;;
20000;SDS011;10161;41.188;-8.642;2023-02-28T01:29:02;10.77;;;8.93;;
20000;SDS011;10161;41.188;-8.642;2023-02-28T01:31:32;13.53;;;10.00;;
20000;SDS011;10161;41.188;-8.642;2023-02-28T01:33:59;10.67;;;8.97;;
20000;SDS011;10161;41.188;-8.642;2023-02-28T01:36:26;11.20;;;8.40;;
20000;SDS011;10161;41.188;-8.642;2023-02-28T01:38:54;11.40;;;8.67;;
20000;SDS011;10161;41.188;-8.642;2023-02-28T01:41:22;13.83;;;8.93;;
20000;SDS011;10161;41.188;-8.642;2023-02-28T01:44:01;10.90;;;8.57;;
20000;SDS011;10161;41.188;-8.642;2023-02-28T01:46:32;11.53;;;8.67;;
20000;SDS011;10161;41.188;-8.642;2023-02-28T01:49:02;12.33;;;7.93;;
20000;SDS011;10161;41.188;-8.642;2023-02-28T01:51:33;9.23;;;6.97;;
20000;SDS011;10161;41.188;-8.642;2023-02-28T01:54:05;10.90;;;6.70;;
20000;SDS011;10161;41.188;-8.642;2023-02-28T01:56:38;8.13;;;6.90;;
20000;SDS011;10161;41.188;-8.642;2023-02-28T01:59:10;7.97;;;6.80;;
20000;SDS011;10161;41.188;-8.642;2023-02-28T02:01:40;10.80;;;6.20;;
20000;SDS011;10161;41.188;-8.642;2023-02-28T02:04:08;7.80;;;6.13;;
20000;SDS011;10161;41.188;-8.642;2023-02-28T02:06:37;8.23;;;6.27;;
20000;SDS011;10161;41.188;-8.642;2023-02-28T02:09:05;7.83;;;5.30;;
20000;SDS011;10161;41.188;-8.642;2023-02-28T02:11:35;8.07;;;6.73;;
20000;SDS011;10161;41.188;-8.642;2023-02-28T02:17:07;9.07;;;5.37;;
20000;SDS011;10161;41.188;-8.642;2023-02-28T02:19:49;8.83;;;5.60;;
20000;SDS011;10161;41.188;-8.642;2023-02-28T02:22:43;6.60;;;4.40;;
20000;SDS011;10161;41.188;-8.642;2023-02-28T02:25:26;6.20;;;4.80;;
20000;SDS011;10161;41.188;-8.642;2023-02-28T02:30:56;8.03;;;4.40;;
20000;SDS011;10161;41.188;-8.642;2023-02-28T02:36:30;6.57;;;4.33;;
20000;SDS011;10161;41.188;-8.642;2023-02-28T02:39:01;4.70;;;3.57;;
20000;SDS011;10161;41.188;-8.642;2023-02-28T02:41:33;4.80;;;3.83;;
20000;SDS011;10161;41.188;-8.642;2023-02-28T02:44:03;4.70;;;3.53;;
20000;SDS011;10161;41.188;-8.642;2023-02-28T02:46:32;6.80;;;3.77;;
20000;SDS011;10161;41.188;-8.642;2023-02-28T02:49:04;4.23;;;3.13;;
20000;SDS011;10161;41.188;-8.642;2023-02-28T02:51:34;5.27;;;3.07;;
20000;SDS011;10161;41.188;-8.642;2023-02-28T02:54:03;4.40;;;3.00;;
20000;SDS011;10161;41.188;-8.642;2023-02-28T02:56:33;3.70;;;2.60;;
20000;SDS011;10161;41.188;-8.642;2023-02-28T02:59:03;4.03;;;2.80;;
20000;SDS011;10161;41.188;-8.642;2023-02-28T03:01:34;4.40;;;2.83;;
20000;SDS011;10161;41.188;-8.642;2023-02-28T03:04:04;4.07;;;3.00;;
20000;SDS011;10161;41.188;-8.642;2023-02-28T03:06:33;6.47;;;3.47;;
20000;SDS011;10161;41.188;-8.642;2023-02-28T03:09:01;3.83;;;2.90;;
20000;SDS011;10161;41.188;-8.642;2023-02-28T03:11:29;4.40;;;3.17;;
20000;SDS011;10161;41.188;-8.642;2023-02-28T03:17:00;3.93;;;2.00;;
20000;SDS011;10161;41.188;-8.642;2023-02-28T03:19:47;3.43;;;2.20;;
20000;SDS011;10161;41.188;-8.642;2023-02-28T03:22:25;2.37;;;2.00;;
20000;SDS011;10161;41.188;-8.642;2023-02-28T03:25:00;3.80;;;2.07;;
20000;SDS011;10161;41.188;-8.642;2023-02-28T03:27:34;4.27;;;2.40;;
20000;SDS011;10161;41.188;-8.642;2023-02-28T03:30:06;2.70;;;1.90;;
20000;SDS011;10161;41.188;-8.642;2023-02-28T03:32:48;3.13;;;2.10;;
20000;SDS011;10161;41.188;-8.642;2023-02-28T03:35:20;2.80;;;1.90;;
20000;SDS011;10161;41.188;-8.642;2023-02-28T03:37:49;3.90;;;1.60;;
20000;SDS011;10161;41.188;-8.642;2023-02-28T03:40:19;4.83;;;1.83;;
20000;SDS011;10161;41.188;-8.642;2023-02-28T03:42:49;1.50;;;1.40;;
20000;SDS011;10161;41.188;-8.642;2023-02-28T03:45:19;2.70;;;1.70;;
20000;SDS011;10161;41.188;-8.642;2023-02-28T03:47:49;2.70;;;2.00;;
20000;SDS011;10161;41.188;-8.642;2023-02-28T03:50:21;6.30;;;1.83;;
20000;SDS011;10161;41.188;-8.642;2023-02-28T03:52:50;2.27;;;1.63;;
20000;SDS011;10161;41.188;-8.642;2023-02-28T03:55:20;2.60;;;1.60;;
20000;SDS011;10161;41.188;-8.642;2023-02-28T03:57:50;3.53;;;1.60;;
20000;SDS011;10161;41.188;-8.642;2023-02-28T04:00:24;2.37;;;1.60;;
20000;SDS011;10161;41.188;-8.642;2023-02-28T04:02:55;3.00;;;1.80;;
20000;SDS011;10161;41.188;-8.642;2023-02-28T04:05:24;1.73;;;1.30;;
20000;SDS011;10161;41.188;-8.642;2023-02-28T04:07:52;1.83;;;1.40;;
20000;SDS011;10161;41.188;-8.642;2023-02-28T04:10:20;5.00;;;1.80;;
20000;SDS011;10161;41.188;-8.642;2023-02-28T04:12:47;3.63;;;1.67;;
20000;SDS011;10161;41.188;-8.642;2023-02-28T04:15:14;4.20;;;1.87;;
20000;SDS011;10161;41.188;-8.642;2023-02-28T04:17:41;2.97;;;1.57;;
20000;SDS011;10161;41.188;-8.642;2023-02-28T04:20:09;2.90;;;1.40;;
20000;SDS011;10161;41.188;-8.642;2023-02-28T04:22:38;2.87;;;1.87;;
20000;SDS011;10161;41.188;-8.642;2023-02-28T04:25:06;1.60;;;1.50;;
20000;SDS011;10161;41.188;-8.642;2023-02-28T04:27:33;3.43;;;2.00;;
20000;SDS011;10161;41.188;-8.642;2023-02-28T04:30:00;2.93;;;1.60;;
20000;SDS011;10161;41.188;-8.642;2023-02-28T04:32:27;2.80;;;1.70;;
20000;SDS011;10161;41.188;-8.642;2023-02-28T04:34:54;2.53;;;1.70;;
20000;SDS011;10161;41.188;-8.642;2023-02-28T04:37:21;2.00;;;1.50;;
20000;SDS011;10161;41.188;-8.642;2023-02-28T04:39:55;1.80;;;1.63;;
20000;SDS011;10161;41.188;-8.642;2023-02-28T04:42:22;3.00;;;1.57;;
20000;SDS011;10161;41.188;-8.642;2023-02-28T04:44:49;2.40;;;1.53;;
20000;SDS011;10161;41.188;-8.642;2023-02-28T04:47:17;1.63;;;1.23;;
20000;SDS011;10161;41.188;-8.642;2023-02-28T04:49:45;4.43;;;1.70;;
20000;SDS011;10161;41.188;-8.642;2023-02-28T04:52:13;3.07;;;1.63;;
20000;SDS011;10161;41.188;-8.642;2023-02-28T04:54:40;2.20;;;1.63;;
20000;SDS011;10161;41.188;-8.642;2023-02-28T04:57:09;4.43;;;1.30;;
20000;SDS011;10161;41.188;-8.642;2023-02-28T04:59:36;2.20;;;1.57;;
20000;SDS011;10161;41.188;-8.642;2023-02-28T05:02:04;3.63;;;1.93;;
20000;SDS011;10161;41.188;-8.642;2023-02-28T05:04:33;2.30;;;1.60;;
20000;SDS011;10161;41.188;-8.642;2023-02-28T05:07:01;5.20;;;1.77;;
20000;SDS011;10161;41.188;-8.642;2023-02-28T05:09:29;1.93;;;1.50;;
20000;SDS011;10161;41.188;-8.642;2023-02-28T05:11:58;3.03;;;1.80;;
20000;SDS011;10161;41.188;-8.642;2023-02-28T05:14:26;3.10;;;1.90;;
20000;SDS011;10161;41.188;-8.642;2023-02-28T05:16:53;2.60;;;1.80;;
20000;SDS011;10161;41.188;-8.642;2023-02-28T05:19:20;2.37;;;1.60;;
20000;SDS011;10161;41.188;-8.642;2023-02-28T05:21:51;1.57;;;1.10;;
20000;SDS011;10161;41.188;-8.642;2023-02-28T05:24:19;1.77;;;1.30;;
20000;SDS011;10161;41.188;-8.642;2023-02-28T05:26:48;3.53;;;1.90;;
20000;SDS011;10161;41.188;-8.642;2023-02-28T05:29:16;2.40;;;1.50;;
20000;SDS011;10161;41.188;-8.642;2023-02-28T05:31:48;2.60;;;1.47;;
20000;SDS011;10161;41.188;-8.642;2023-02-28T05:34:17;1.53;;;1.20;;
20000;SDS011;10161;41.188;-8.642;2023-02-28T05:36:44;1.93;;;1.20;;
20000;SDS011;10161;41.188;-8.642;2023-02-28T05:39:11;2.03;;;1.30;;
20000;SDS011;10161;41.188;-8.642;2023-02-28T05:41:39;2.37;;;1.33;;
20000;SDS011;10161;41.188;-8.642;2023-02-28T05:44:07;2.23;;;1.23;;
20000;SDS011;10161;41.188;-8.642;2023-02-28T05:46:34;1.53;;;1.30;;
20000;SDS011;10161;41.188;-8.642;2023-02-28T05:49:03;2.60;;;1.53;;
20000;SDS011;10161;41.188;-8.642;2023-02-28T05:51:30;3.33;;;2.00;;
20000;SDS011;10161;41.188;-8.642;2023-02-28T05:54:00;2.50;;;1.70;;
20000;SDS011;10161;41.188;-8.642;2023-02-28T05:56:27;5.80;;;2.40;;
20000;SDS011;10161;41.188;-8.642;2023-02-28T05:58:54;3.23;;;2.07;;
20000;SDS011;10161;41.188;-8.642;2023-02-28T06:01:24;3.60;;;2.00;;
20000;SDS011;10161;41.188;-8.642;2023-02-28T06:03:58;4.27;;;1.87;;
20000;SDS011;10161;41.188;-8.642;2023-02-28T06:06:27;4.00;;;2.00;;
20000;SDS011;10161;41.188;-8.642;2023-02-28T06:08:55;1.83;;;1.70;;
20000;SDS011;10161;41.188;-8.642;2023-02-28T06:11:23;1.40;;;1.27;;
20000;SDS011;10161;41.188;-8.642;2023-02-28T06:13:53;6.90;;;2.03;;
20000;SDS011;10161;41.188;-8.642;2023-02-28T06:16:21;2.03;;;1.43;;
20000;SDS011;10161;41.188;-8.642;2023-02-28T06:18:49;2.30;;;1.67;;
20000;SDS011;10161;41.188;-8.642;2023-02-28T06:21:16;3.00;;;1.60;;
20000;SDS011;10161;41.188;-8.642;2023-02-28T06:23:44;1.50;;;1.27;;
20000;SDS011;10161;41.188;-8.642;2023-02-28T06:26:11;2.47;;;1.77;;
20000;SDS011;10161;41.188;-8.642;2023-02-28T06:28:38;2.40;;;1.50;;
20000;SDS011;10161;41.188;-8.642;2023-02-28T06:31:06;1.87;;;1.57;;
20000;SDS011;10161;41.188;-8.642;2023-02-28T06:33:35;3.20;;;1.30;;
20000;SDS011;10161;41.188;-8.642;2023-02-28T06:36:02;2.20;;;1.50;;
20000;SDS011;10161;41.188;-8.642;2023-02-28T06:38:31;1.70;;;1.40;;
20000;SDS011;10161;41.188;-8.642;2023-02-28T06:41:01;2.50;;;1.80;;
20000;SDS011;10161;41.188;-8.642;2023-02-28T06:43:29;1.80;;;1.70;;
20000;SDS011;10161;41.188;-8.642;2023-02-28T06:45:58;2.13;;;1.60;;
20000;SDS011;10161;41.188;-8.642;2023-02-28T06:48:26;2.30;;;2.10;;
20000;SDS011;10161;41.188;-8.642;2023-02-28T06:51:00;2.47;;;1.73;;
20000;SDS011;10161;41.188;-8.642;2023-02-28T06:53:28;2.23;;;1.70;;
20000;SDS011;10161;41.188;-8.642;2023-02-28T06:56:02;3.87;;;1.70;;
20000;SDS011;10161;41.188;-8.642;2023-02-28T06:58:30;3.43;;;1.83;;
20000;SDS011;10161;41.188;-8.642;2023-02-28T07:00:57;2.50;;;1.90;;
20000;SDS011;10161;41.188;-8.642;2023-02-28T07:03:25;4.40;;;2.10;;
20000;SDS011;10161;41.188;-8.642;2023-02-28T07:05:52;2.97;;;1.63;;
20000;SDS011;10161;41.188;-8.642;2023-02-28T07:08:21;3.10;;;1.50;;
20000;SDS011;10161;41.188;-8.642;2023-02-28T07:10:51;2.20;;;1.10;;
20000;SDS011;10161;41.188;-8.642;2023-02-28T07:13:21;2.37;;;1.43;;
20000;SDS011;10161;41.188;-8.642;2023-02-28T07:15:55;2.77;;;1.60;;
20000;SDS011;10161;41.188;-8.642;2023-02-28T07:18:23;2.00;;;1.37;;
20000;SDS011;10161;41.188;-8.642;2023-02-28T07:20:51;3.90;;;2.53;;
20000;SDS011;10161;41.188;-8.642;2023-02-28T07:23:18;4.43;;;1.77;;
20000;SDS011;10161;41.188;-8.642;2023-02-28T07:25:46;3.00;;;1.60;;
20000;SDS011;10161;41.188;-8.642;2023-02-28T07:28:16;1.93;;;1.50;;
20000;SDS011;10161;41.188;-8.642;2023-02-28T07:30:45;2.20;;;1.50;;
20000;SDS011;10161;41.188;-8.642;2023-02-28T07:33:13;3.47;;;1.70;;
20000;SDS011;10161;41.188;-8.642;2023-02-28T07:35:40;3.03;;;1.60;;
20000;SDS011;10161;41.188;-8.642;2023-02-28T07:38:07;2.43;;;1.63;;
20000;SDS011;10161;41.188;-8.642;2023-02-28T07:40:34;1.73;;;1.43;;
20000;SDS011;10161;41.188;-8.642;2023-02-28T07:43:03;3.70;;;1.60;;
20000;SDS011;10161;41.188;-8.642;2023-02-28T07:45:32;4.50;;;1.70;;
20000;SDS011;10161;41.188;-8.642;2023-02-28T07:48:03;4.27;;;1.63;;
20000;SDS011;10161;41.188;-8.642;2023-02-28T07:50:35;2.30;;;1.43;;
20000;SDS011;10161;41.188;-8.642;2023-02-28T07:53:02;1.80;;;1.43;;
20000;SDS011;10161;41.188;-8.642;2023-02-28T07:55:29;3.03;;;1.60;;
20000;SDS011;10161;41.188;-8.642;2023-02-28T07:57:56;2.67;;;1.70;;
20000;SDS011;10161;41.188;-8.642;2023-02-28T08:00:24;3.03;;;1.80;;
20000;SDS011;10161;41.188;-8.642;2023-02-28T08:02:52;2.83;;;1.33;;
20000;SDS011;10161;41.188;-8.642;2023-02-28T08:05:20;1.90;;;1.47;;
20000;SDS011;10161;41.188;-8.642;2023-02-28T08:07:48;5.03;;;1.47;;
20000;SDS011;10161;41.188;-8.642;2023-02-28T08:10:16;2.47;;;1.60;;
20000;SDS011;10161;41.188;-8.642;2023-02-28T08:12:43;5.30;;;1.70;;
20000;SDS011;10161;41.188;-8.642;2023-02-28T08:15:10;2.73;;;2.03;;
20000;SDS011;10161;41.188;-8.642;2023-02-28T08:17:37;4.10;;;1.97;;
20000;SDS011;10161;41.188;-8.642;2023-02-28T08:20:07;3.30;;;1.80;;
20000;SDS011;10161;41.188;-8.642;2023-02-28T08:22:37;7.20;;;1.60;;
20000;SDS011;10161;41.188;-8.642;2023-02-28T08:25:04;4.20;;;1.97;;
20000;SDS011;10161;41.188;-8.642;2023-02-28T08:27:32;2.90;;;1.70;;
20000;SDS011;10161;41.188;-8.642;2023-02-28T08:29:59;3.90;;;1.70;;
20000;SDS011;10161;41.188;-8.642;2023-02-28T08:32:28;3.30;;;2.00;;
20000;SDS011;10161;41.188;-8.642;2023-02-28T08:34:55;3.43;;;1.93;;
20000;SDS011;10161;41.188;-8.642;2023-02-28T08:37:22;3.30;;;1.90;;
20000;SDS011;10161;41.188;-8.642;2023-02-28T08:39:51;4.43;;;2.00;;
20000;SDS011;10161;41.188;-8.642;2023-02-28T08:42:18;5.87;;;1.90;;
20000;SDS011;10161;41.188;-8.642;2023-02-28T08:44:45;2.30;;;1.90;;
20000;SDS011;10161;41.188;-8.642;2023-02-28T08:47:12;2.57;;;1.70;;
20000;SDS011;10161;41.188;-8.642;2023-02-28T08:49:40;2.87;;;2.00;;
20000;SDS011;10161;41.188;-8.642;2023-02-28T08:52:08;5.17;;;2.30;;
20000;SDS011;10161;41.188;-8.642;2023-02-28T08:54:35;4.67;;;2.50;;
20000;SDS011;10161;41.188;-8.642;2023-02-28T08:57:05;7.83;;;2.73;;
20000;SDS011;10161;41.188;-8.642;2023-02-28T08:59:32;3.47;;;2.17;;
20000;SDS011;10161;41.188;-8.642;2023-02-28T09:01:59;4.67;;;2.43;;
20000;SDS011;10161;41.188;-8.642;2023-02-28T09:04:26;7.60;;;2.80;;
20000;SDS011;10161;41.188;-8.642;2023-02-28T09:06:55;5.13;;;2.20;;
20000;SDS011;10161;41.188;-8.642;2023-02-28T09:09:23;2.03;;;1.80;;
20000;SDS011;10161;41.188;-8.642;2023-02-28T09:11:49;7.17;;;2.70;;
20000;SDS011;10161;41.188;-8.642;2023-02-28T09:14:19;2.53;;;2.07;;
20000;SDS011;10161;41.188;-8.642;2023-02-28T09:16:47;2.80;;;1.63;;
20000;SDS011;10161;41.188;-8.642;2023-02-28T09:19:14;3.53;;;2.30;;
20000;SDS011;10161;41.188;-8.642;2023-02-28T09:21:42;4.17;;;2.30;;
20000;SDS011;10161;41.188;-8.642;2023-02-28T09:24:09;4.40;;;2.27;;
20000;SDS011;10161;41.188;-8.642;2023-02-28T09:26:39;2.60;;;2.17;;
20000;SDS011;10161;41.188;-8.642;2023-02-28T09:29:06;3.30;;;2.40;;
20000;SDS011;10161;41.188;-8.642;2023-02-28T09:31:36;4.43;;;2.70;;
20000;SDS011;10161;41.188;-8.642;2023-02-28T09:34:03;4.20;;;2.23;;
20000;SDS011;10161;41.188;-8.642;2023-02-28T09:36:31;3.40;;;2.30;;
20000;SDS011;10161;41.188;-8.642;2023-02-28T09:39:00;4.87;;;2.80;;
20000;SDS011;10161;41.188;-8.642;2023-02-28T09:41:27;3.30;;;2.10;;
20000;SDS011;10161;41.188;-8.642;2023-02-28T09:44:02;8.63;;;2.97;;
20000;SDS011;10161;41.188;-8.642;2023-02-28T09:46:33;4.80;;;2.57;;
20000;SDS011;10161;41.188;-8.642;2023-02-28T09:49:06;4.10;;;2.70;;
20000;SDS011;10161;41.188;-8.642;2023-02-28T09:51:40;4.57;;;2.70;;
20000;SDS011;10161;41.188;-8.642;2023-02-28T09:54:15;4.63;;;2.27;;
20000;SDS011;10161;41.188;-8.642;2023-02-28T09:56:44;3.27;;;2.87;;
20000;SDS011;10161;41.188;-8.642;2023-02-28T09:59:13;3.23;;;2.77;;
20000;SDS011;10161;41.188;-8.642;2023-02-28T10:01:53;4.50;;;2.57;;
20000;SDS011;10161;41.188;-8.642;2023-02-28T10:04:30;3.80;;;2.87;;
20000;SDS011;10161;41.188;-8.642;2023-02-28T10:07:17;4.57;;;2.50;;
20000;SDS011;10161;41.188;-8.642;2023-02-28T10:09:50;3.67;;;2.50;;
20000;SDS011;10161;41.188;-8.642;2023-02-28T10:12:19;9.40;;;2.83;;
20000;SDS011;10161;41.188;-8.642;2023-02-28T10:14:46;3.77;;;2.90;;
20000;SDS011;10161;41.188;-8.642;2023-02-28T10:17:18;4.80;;;2.77;;
20000;SDS011;10161;41.188;-8.642;2023-02-28T10:19:48;2.93;;;2.50;;
20000;SDS011;10161;41.188;-8.642;2023-02-28T10:22:20;4.10;;;2.70;;
20000;SDS011;10161;41.188;-8.642;2023-02-28T10:24:50;3.63;;;2.73;;
20000;SDS011;10161;41.188;-8.642;2023-02-28T10:27:18;3.33;;;2.40;;
20000;SDS011;10161;41.188;-8.642;2023-02-28T10:29:46;4.60;;;2.63;;
20000;SDS011;10161;41.188;-8.642;2023-02-28T10:32:16;3.90;;;3.00;;
20000;SDS011;10161;41.188;-8.642;2023-02-28T10:34:47;4.80;;;3.20;;
20000;SDS011;10161;41.188;-8.642;2023-02-28T10:37:17;5.30;;;2.93;;
20000;SDS011;10161;41.188;-8.642;2023-02-28T10:39:46;4.63;;;3.03;;
20000;SDS011;10161;41.188;-8.642;2023-02-28T10:42:21;4.27;;;3.50;;
20000;SDS011;10161;41.188;-8.642;2023-02-28T10:45:03;3.47;;;2.60;;
20000;SDS011;10161;41.188;-8.642;2023-02-28T10:47:33;5.87;;;2.97;;
20000;SDS011;10161;41.188;-8.642;2023-02-28T10:50:01;3.33;;;2.33;;
20000;SDS011;10161;41.188;-8.642;2023-02-28T10:52:35;5.50;;;3.00;;
20000;SDS011;10161;41.188;-8.642;2023-02-28T10:55:14;4.27;;;3.00;;
20000;SDS011;10161;41.188;-8.642;2023-02-28T10:57:42;5.53;;;2.90;;
20000;SDS011;10161;41.188;-8.642;2023-02-28T11:00:13;3.37;;;2.60;;
20000;SDS011;10161;41.188;-8.642;2023-02-28T11:02:43;3.70;;;2.80;;
20000;SDS011;10161;41.188;-8.642;2023-02-28T11:05:25;3.23;;;2.30;;
20000;SDS011;10161;41.188;-8.642;2023-02-28T11:07:54;3.73;;;2.50;;
20000;SDS011;10161;41.188;-8.642;2023-02-28T11:10:23;3.30;;;2.43;;
20000;SDS011;10161;41.188;-8.642;2023-02-28T11:12:54;2.90;;;2.27;;
20000;SDS011;10161;41.188;-8.642;2023-02-28T11:15:22;3.13;;;2.47;;
20000;SDS011;10161;41.188;-8.642;2023-02-28T11:17:55;5.30;;;2.30;;
20000;SDS011;10161;41.188;-8.642;2023-02-28T11:20:25;3.87;;;2.53;;
20000;SDS011;10161;41.188;-8.642;2023-02-28T11:22:53;4.17;;;2.67;;
20000;SDS011;10161;41.188;-8.642;2023-02-28T11:25:21;4.23;;;2.93;;
20000;SDS011;10161;41.188;-8.642;2023-02-28T11:27:51;2.60;;;2.40;;
20000;SDS011;10161;41.188;-8.642;2023-02-28T11:33:27;4.07;;;2.93;;
20000;SDS011;10161;41.188;-8.642;2023-02-28T11:35:57;3.63;;;2.70;;
20000;SDS011;10161;41.188;-8.642;2023-02-28T11:38:27;4.83;;;3.20;;
20000;SDS011;10161;41.188;-8.642;2023-02-28T11:41:02;5.43;;;3.17;;
20000;SDS011;10161;41.188;-8.642;2023-02-28T11:43:53;4.47;;;2.67;;
20000;SDS011;10161;41.188;-8.642;2023-02-28T11:46:41;5.60;;;3.13;;
20000;SDS011;10161;41.188;-8.642;2023-02-28T11:49:18;2.77;;;2.57;;
20000;SDS011;10161;41.188;-8.642;2023-02-28T11:51:57;3.53;;;2.20;;
20000;SDS011;10161;41.188;-8.642;2023-02-28T11:54:29;5.03;;;3.07;;
20000;SDS011;10161;41.188;-8.642;2023-02-28T11:57:13;9.00;;;3.00;;
20000;SDS011;10161;41.188;-8.642;2023-02-28T11:59:50;4.30;;;2.67;;
20000;SDS011;10161;41.188;-8.642;2023-02-28T12:02:26;3.67;;;2.60;;
20000;SDS011;10161;41.188;-8.642;2023-02-28T12:07:50;5.60;;;2.57;;
20000;SDS011;10161;41.188;-8.642;2023-02-28T12:10:27;4.77;;;2.63;;
20000;SDS011;10161;41.188;-8.642;2023-02-28T12:13:08;3.23;;;2.40;;
20000;SDS011;10161;41.188;-8.642;2023-02-28T12:15:48;3.77;;;2.50;;
20000;SDS011;10161;41.188;-8.642;2023-02-28T12:18:26;4.23;;;2.37;;
20000;SDS011;10161;41.188;-8.642;2023-02-28T12:21:04;4.87;;;2.80;;
20000;SDS011;10161;41.188;-8.642;2023-02-28T12:23:50;4.33;;;2.63;;
20000;SDS011;10161;41.188;-8.642;2023-02-28T12:26:24;5.03;;;2.53;;
20000;SDS011;10161;41.188;-8.642;2023-02-28T12:28:57;4.13;;;2.60;;
20000;SDS011;10161;41.188;-8.642;2023-02-28T12:31:27;4.83;;;2.80;;
20000;SDS011;10161;41.188;-8.642;2023-02-28T12:34:01;3.93;;;2.90;;
20000;SDS011;10161;41.188;-8.642;2023-02-28T12:36:32;3.70;;;2.70;;
20000;SDS011;10161;41.188;-8.642;2023-02-28T12:39:01;4.37;;;2.50;;
20000;SDS011;10161;41.188;-8.642;2023-02-28T12:41:33;4.70;;;2.93;;
20000;SDS011;10161;41.188;-8.642;2023-02-28T12:44:03;4.20;;;2.80;;
20000;SDS011;10161;41.188;-8.642;2023-02-28T12:46:35;4.47;;;3.00;;
20000;SDS011;10161;41.188;-8.642;2023-02-28T12:49:05;4.97;;;3.00;;
20000;SDS011;10161;41.188;-8.642;2023-02-28T12:51:37;3.60;;;2.83;;
20000;SDS011;10161;41.188;-8.642;2023-02-28T12:54:07;3.80;;;2.43;;
20000;SDS011;10161;41.188;-8.642;2023-02-28T12:56:42;3.53;;;3.07;;
20000;SDS011;10161;41.188;-8.642;2023-02-28T12:59:13;4.60;;;2.50;;
20000;SDS011;10161;41.188;-8.642;2023-02-28T13:01:48;4.00;;;3.00;;
20000;SDS011;10161;41.188;-8.642;2023-02-28T13:04:41;2.57;;;1.90;;
20000;SDS011;10161;41.188;-8.642;2023-02-28T13:07:33;4.70;;;2.80;;
20000;SDS011;10161;41.188;-8.642;2023-02-28T13:10:18;3.67;;;2.87;;
20000;SDS011;10161;41.188;-8.642;2023-02-28T13:12:49;3.33;;;2.80;;
20000;SDS011;10161;41.188;-8.642;2023-02-28T13:15:17;4.20;;;2.57;;
20000;SDS011;10161;41.188;-8.642;2023-02-28T13:17:49;5.80;;;2.40;;
20000;SDS011;10161;41.188;-8.642;2023-02-28T13:20:18;6.97;;;3.40;;
20000;SDS011;10161;41.188;-8.642;2023-02-28T13:22:49;3.67;;;2.57;;
20000;SDS011;10161;41.188;-8.642;2023-02-28T13:34:47;3.93;;;2.30;;
20000;SDS011;10161;41.188;-8.642;2023-02-28T13:37:44;6.80;;;2.43;;
20000;SDS011;10161;41.188;-8.642;2023-02-28T13:40:36;7.03;;;3.30;;
20000;SDS011;10161;41.188;-8.642;2023-02-28T13:43:05;4.00;;;2.60;;
20000;SDS011;10161;41.188;-8.642;2023-02-28T13:45:34;3.50;;;2.50;;
20000;SDS011;10161;41.188;-8.642;2023-02-28T13:48:04;3.50;;;2.73;;
20000;SDS011;10161;41.188;-8.642;2023-02-28T13:50:32;3.77;;;2.70;;
20000;SDS011;10161;41.188;-8.642;2023-02-28T13:55:56;4.80;;;2.73;;
20000;SDS011;10161;41.188;-8.642;2023-02-28T13:58:39;4.57;;;2.77;;
20000;SDS011;10161;41.188;-8.642;2023-02-28T14:01:20;4.80;;;2.77;;
20000;SDS011;10161;41.188;-8.642;2023-02-28T14:03:57;3.87;;;2.60;;
20000;SDS011;10161;41.188;-8.642;2023-02-28T14:06:29;3.33;;;2.30;;
20000;SDS011;10161;41.188;-8.642;2023-02-28T14:08:59;3.27;;;2.97;;
20000;SDS011;10161;41.188;-8.642;2023-02-28T14:11:32;5.90;;;2.70;;
20000;SDS011;10161;41.188;-8.642;2023-02-28T14:14:01;3.30;;;2.90;;
20000;SDS011;10161;41.188;-8.642;2023-02-28T14:16:35;5.17;;;2.60;;
20000;SDS011;10161;41.188;-8.642;2023-02-28T14:19:09;3.33;;;2.40;;
20000;SDS011;10161;41.188;-8.642;2023-02-28T14:21:39;4.20;;;3.00;;
20000;SDS011;10161;41.188;-8.642;2023-02-28T14:24:20;5.23;;;2.70;;
20000;SDS011;10161;41.188;-8.642;2023-02-28T14:30:20;3.63;;;2.47;;
20000;SDS011;10161;41.188;-8.642;2023-02-28T14:33:00;3.33;;;2.73;;
20000;SDS011;10161;41.188;-8.642;2023-02-28T14:35:39;3.83;;;2.43;;
20000;SDS011;10161;41.188;-8.642;2023-02-28T14:38:14;3.60;;;2.57;;
20000;SDS011;10161;41.188;-8.642;2023-02-28T14:40:44;3.20;;;2.23;;
20000;SDS011;10161;41.188;-8.642;2023-02-28T14:43:20;3.40;;;2.27;;
20000;SDS011;10161;41.188;-8.642;2023-02-28T14:45:51;6.80;;;2.57;;
20000;SDS011;10161;41.188;-8.642;2023-02-28T14:48:20;5.70;;;3.60;;
20000;SDS011;10161;41.188;-8.642;2023-02-28T14:50:48;10.23;;;3.40;;
20000;SDS011;10161;41.188;-8.642;2023-02-28T14:53:18;4.10;;;2.50;;
20000;SDS011;10161;41.188;-8.642;2023-02-28T14:55:46;8.80;;;2.93;;
20000;SDS011;10161;41.188;-8.642;2023-02-28T14:58:21;5.43;;;3.27;;
20000;SDS011;10161;41.188;-8.642;2023-02-28T15:00:51;5.63;;;2.90;;
20000;SDS011;10161;41.188;-8.642;2023-02-28T15:03:20;3.57;;;2.20;;
20000;SDS011;10161;41.188;-8.642;2023-02-28T15:05:52;5.50;;;2.77;;
20000;SDS011;10161;41.188;-8.642;2023-02-28T15:08:22;6.63;;;3.63;;
20000;SDS011;10161;41.188;-8.642;2023-02-28T15:10:53;3.73;;;2.63;;
20000;SDS011;10161;41.188;-8.642;2023-02-28T15:13:23;5.00;;;4.03;;
20000;SDS011;10161;41.188;-8.642;2023-02-28T15:15:56;4.13;;;2.60;;
20000;SDS011;10161;41.188;-8.642;2023-02-28T15:18:33;2.97;;;2.03;;
20000;SDS011;10161;41.188;-8.642;2023-02-28T15:21:07;5.77;;;2.33;;
20000;SDS011;10161;41.188;-8.642;2023-02-28T15:23:38;5.70;;;2.50;;